Time;durP1;ratioP1;P1;durP2;ratioP2;P2;SDS_P1;SDS_P2;PMS_P1;PMS_P2;Temp;Humidity;BMP_temperature;BMP_pressure;BME280_temperature;BME280_humidity;BME280_pressure;Samples;Min_cycle;Max_cycle;Signal;HPM_P1;HPM_P2
2023/01/05 00:00:11;;;;;;;27.10;3.00;;;;;;;;;;6217628;23;20031;-94
2023/01/05 00:02:37;;;;;;;20.85;3.25;;;;;;;;;;6242665;23;20314;-95
2023/01/05 00:05:08;;;;;;;30.20;4.03;;;;;;;;;;6218724;23;20012;-95
2023/01/05 00:07:34;;;;;;;30.90;3.05;;;;;;;;;;6219044;23;20039;-96
2023/01/05 00:10:00;;;;;;;27.13;3.65;;;;;;;;;;6219943;23;20457;-95
2023/01/05 00:23:41;;;;;;;11.23;2.05;;;;;;;;;;6195568;23;20004;-95
2023/01/05 00:26:07;;;;;;;20.38;1.92;;;;;;;;;;6245768;23;20008;-96
2023/01/05 00:28:36;;;;;;;26.70;3.80;;;;;;;;;;6221137;23;20023;-95
2023/01/05 00:31:02;;;;;;;32.63;3.78;;;;;;;;;;6220853;23;20012;-95
2023/01/05 00:33:28;;;;;;;13.55;2.55;;;;;;;;;;6219981;23;20056;-96
2023/01/05 00:35:54;;;;;;;25.98;4.25;;;;;;;;;;6244253;23;20004;-95
2023/01/05 00:38:20;;;;;;;31.42;3.72;;;;;;;;;;6216998;23;20043;-95
2023/01/05 00:40:50;;;;;;;16.20;2.42;;;;;;;;;;6243490;23;20058;-96
2023/01/05 00:43:22;;;;;;;21.23;3.28;;;;;;;;;;6219155;23;20019;-96
2023/01/05 00:45:48;;;;;;;27.25;4.18;;;;;;;;;;6243635;23;20103;-95
2023/01/05 00:48:17;;;;;;;20.48;2.60;;;;;;;;;;6218960;23;20008;-96
2023/01/05 00:51:07;;;;;;;27.50;3.28;;;;;;;;;;6220950;22;20457;-95
2023/01/05 00:53:46;;;;;;;;;;;;;;;;;;;;;
2023/01/05 00:56:18;;;;;;;10.90;2.80;;;;;;;;;;6244451;23;20518;-96
2023/01/05 00:58:45;;;;;;;35.70;3.47;;;;;;;;;;6218411;23;20008;-96
2023/01/05 01:01:11;;;;;;;20.80;3.05;;;;;;;;;;6220081;23;20021;-96
2023/01/05 01:03:38;;;;;;;30.98;4.07;;;;;;;;;;6220200;23;20053;-96
2023/01/05 01:06:04;;;;;;;19.55;3.40;;;;;;;;;;6219672;23;20012;-96
2023/01/05 01:08:30;;;;;;;43.13;5.78;;;;;;;;;;6194103;23;20008;-96
2023/01/05 01:10:56;;;;;;;27.75;4.07;;;;;;;;;;6219357;23;20333;-95
2023/01/05 01:13:23;;;;;;;40.08;4.97;;;;;;;;;;6244531;23;20035;-95
2023/01/05 01:15:49;;;;;;;35.75;4.03;;;;;;;;;;6193643;23;20012;-95
2023/01/05 01:18:15;;;;;;;25.23;3.38;;;;;;;;;;6244918;23;20043;-96
2023/01/05 01:20:41;;;;;;;35.35;3.45;;;;;;;;;;6220964;23;20012;-96
2023/01/05 01:23:07;;;;;;;27.27;5.18;;;;;;;;;;6194929;23;20031;-96
2023/01/05 01:25:34;;;;;;;38.65;5.05;;;;;;;;;;6218697;23;20007;-96
2023/01/05 01:28:00;;;;;;;14.38;1.98;;;;;;;;;;6219478;23;20008;-95
2023/01/05 01:30:28;;;;;;;20.48;2.33;;;;;;;;;;6195527;23;20013;-96
2023/01/05 01:32:57;;;;;;;24.55;3.80;;;;;;;;;;6195633;23;20023;-95
2023/01/05 01:35:24;;;;;;;30.48;3.70;;;;;;;;;;6195550;23;20314;-95
2023/01/05 01:37:50;;;;;;;27.58;4.50;;;;;;;;;;6194125;23;20356;-95
2023/01/05 01:40:16;;;;;;;17.02;2.33;;;;;;;;;;6195236;23;20428;-96
2023/01/05 01:42:42;;;;;;;11.98;2.45;;;;;;;;;;6218176;23;20449;-96
2023/01/05 01:45:19;;;;;;;13.68;1.92;;;;;;;;;;6220210;23;20005;-96
2023/01/05 01:47:48;;;;;;;25.02;2.50;;;;;;;;;;6220113;23;20009;-96
2023/01/05 01:50:19;;;;;;;16.40;2.88;;;;;;;;;;6210266;22;20044;-96
2023/01/05 01:52:49;;;;;;;22.55;3.58;;;;;;;;;;6188530;23;20012;-96
2023/01/05 01:55:15;;;;;;;15.90;1.83;;;;;;;;;;6189131;23;20055;-95
2023/01/05 01:57:43;;;;;;;23.60;3.97;;;;;;;;;;6163837;23;20036;-95
2023/01/05 02:00:13;;;;;;;24.23;3.35;;;;;;;;;;6165149;23;20434;-96
2023/01/05 02:02:40;;;;;;;30.35;4.07;;;;;;;;;;6189569;23;20004;-96
2023/01/05 02:05:07;;;;;;;18.30;2.55;;;;;;;;;;6189163;23;20019;-96
2023/01/05 02:07:37;;;;;;;17.60;3.42;;;;;;;;;;6190382;23;20532;-95
2023/01/05 02:10:04;;;;;;;19.45;2.22;;;;;;;;;;6190861;23;20015;-96
2023/01/05 02:12:33;;;;;;;17.17;1.80;;;;;;;;;;6191457;23;20099;-96
2023/01/05 02:15:36;;;;;;;23.70;4.22;;;;;;;;;;6191114;23;20081;-96
2023/01/05 02:18:20;;;;;;;35.22;3.42;;;;;;;;;;6115368;23;20417;-95
2023/01/05 02:21:05;;;;;;;20.25;3.40;;;;;;;;;;6190228;23;20337;-95
2023/01/05 02:23:31;;;;;;;30.15;3.30;;;;;;;;;;6190239;23;19997;-95
2023/01/05 02:26:18;;;;;;;11.82;2.08;;;;;;;;;;6189251;23;20020;-95
2023/01/05 02:28:53;;;;;;;28.38;3.88;;;;;;;;;;6189770;23;20009;-95
2023/01/05 02:31:24;;;;;;;36.97;3.47;;;;;;;;;;6190391;23;20110;-95
2023/01/05 02:33:59;;;;;;;21.15;2.83;;;;;;;;;;6190285;23;20004;-96
2023/01/05 02:36:29;;;;;;;16.98;2.17;;;;;;;;;;6189246;23;20471;-96
2023/01/05 02:39:07;;;;;;;16.33;2.60;;;;;;;;;;6189658;23;20022;-96
2023/01/05 02:41:40;;;;;;;13.73;2.83;;;;;;;;;;6191967;23;20429;-96
2023/01/05 02:44:15;;;;;;;13.13;2.80;;;;;;;;;;6192231;23;20016;-95
2023/01/05 02:46:41;;;;;;;21.75;3.17;;;;;;;;;;6191484;23;20009;-95
2023/01/05 02:49:10;;;;;;;15.15;3.08;;;;;;;;;;6192233;23;20008;-95
2023/01/05 02:51:38;;;;;;;26.45;3.67;;;;;;;;;;6194450;22;20020;-95
2023/01/05 02:54:10;;;;;;;25.45;3.15;;;;;;;;;;6190764;23;20004;-94
2023/01/05 02:56:41;;;;;;;21.55;3.20;;;;;;;;;;6191656;23;20008;-93
2023/01/05 02:59:16;;;;;;;25.77;4.00;;;;;;;;;;6191986;23;19993;-95
2023/01/05 03:01:48;;;;;;;23.85;3.50;;;;;;;;;;6191547;23;20066;-95
2023/01/05 03:04:19;;;;;;;16.05;3.33;;;;;;;;;;6191538;23;20456;-95
2023/01/05 03:06:49;;;;;;;12.90;2.90;;;;;;;;;;6191402;23;20009;-95
2023/01/05 03:09:24;;;;;;;20.13;3.55;;;;;;;;;;6191399;23;19985;-95
2023/01/05 03:14:47;;;;;;;23.30;4.10;;;;;;;;;;6156843;23;20001;-94
2023/01/05 03:17:15;;;;;;;23.13;4.25;;;;;;;;;;6191294;23;20020;-95
2023/01/05 03:19:43;;;;;;;36.33;3.40;;;;;;;;;;6192052;23;20660;-95
2023/01/05 03:36:46;;;;;;;34.60;4.95;;;;;;;;;;6217231;23;20016;-96
2023/01/05 03:39:13;;;;;;;28.23;3.78;;;;;;;;;;6190235;23;20005;-95
2023/01/05 03:41:39;;;;;;;29.27;3.15;;;;;;;;;;6190665;23;20012;-94
2023/01/05 03:44:06;;;;;;;29.92;4.20;;;;;;;;;;6189443;23;20012;-95
2023/01/05 03:46:32;;;;;;;18.58;3.28;;;;;;;;;;6190901;23;20010;-95
2023/01/05 03:48:58;;;;;;;15.38;3.03;;;;;;;;;;6190381;23;20061;-95
2023/01/05 03:51:27;;;;;;;13.27;2.55;;;;;;;;;;6190148;22;20070;-95
2023/01/05 03:54:03;;;;;;;;;;;;;;;;;;;;;
2023/01/05 03:56:32;;;;;;;19.50;2.78;;;;;;;;;;6222775;23;20052;-95
2023/01/05 03:58:58;;;;;;;17.08;3.60;;;;;;;;;;6195792;23;20835;-95
2023/01/05 04:01:24;;;;;;;29.23;2.60;;;;;;;;;;6246225;23;20012;-95
2023/01/05 04:03:51;;;;;;;15.90;2.60;;;;;;;;;;6194960;23;20020;-95
2023/01/05 04:06:17;;;;;;;17.33;2.75;;;;;;;;;;6196108;23;20447;-96
2023/01/05 04:08:45;;;;;;;34.65;3.08;;;;;;;;;;6196130;23;20035;-95
2023/01/05 04:11:13;;;;;;;27.38;3.05;;;;;;;;;;6245141;23;20008;-95
2023/01/05 04:13:39;;;;;;;21.17;3.13;;;;;;;;;;6244342;23;20001;-94
2023/01/05 04:16:10;;;;;;;30.67;4.50;;;;;;;;;;6194710;23;20074;-95
2023/01/05 04:18:36;;;;;;;17.73;4.10;;;;;;;;;;6245569;23;20045;-95
2023/01/05 04:21:04;;;;;;;15.32;2.15;;;;;;;;;;6195205;23;20024;-94
2023/01/05 04:23:30;;;;;;;31.65;4.57;;;;;;;;;;6245333;23;20432;-95
2023/01/05 04:25:56;;;;;;;9.95;2.10;;;;;;;;;;6244564;23;20386;-95
2023/01/05 04:28:22;;;;;;;15.88;3.20;;;;;;;;;;6245573;23;20008;-95
2023/01/05 04:30:50;;;;;;;29.75;3.63;;;;;;;;;;6244855;23;20012;-94
2023/01/05 04:33:16;;;;;;;12.88;3.55;;;;;;;;;;6195613;23;20032;-95
2023/01/05 04:35:43;;;;;;;19.08;2.70;;;;;;;;;;6195087;23;20004;-95
2023/01/05 04:38:09;;;;;;;24.80;3.05;;;;;;;;;;6194867;23;20716;-95
2023/01/05 04:40:37;;;;;;;13.10;1.95;;;;;;;;;;6194706;23;20040;-94
2023/01/05 04:43:03;;;;;;;21.13;3.85;;;;;;;;;;6195375;23;20012;-94
2023/01/05 04:45:29;;;;;;;19.27;3.67;;;;;;;;;;6196990;23;20012;-94
2023/01/05 04:47:55;;;;;;;27.83;3.40;;;;;;;;;;6194799;23;20145;-95
2023/01/05 04:50:21;;;;;;;22.25;3.83;;;;;;;;;;6246270;22;20000;-95
2023/01/05 04:52:47;;;;;;;32.63;4.88;;;;;;;;;;6195656;23;20012;-95
2023/01/05 04:55:13;;;;;;;26.75;4.15;;;;;;;;;;6195293;23;20011;-95
2023/01/05 04:57:41;;;;;;;12.93;2.95;;;;;;;;;;6219424;23;20095;-95
2023/01/05 05:00:07;;;;;;;22.35;2.67;;;;;;;;;;6218801;23;20039;-93
2023/01/05 05:02:34;;;;;;;17.10;2.95;;;;;;;;;;6219999;23;20103;-94
2023/01/05 05:05:03;;;;;;;27.65;3.67;;;;;;;;;;6244766;23;20035;-94
2023/01/05 05:07:29;;;;;;;13.48;2.72;;;;;;;;;;6193917;23;20004;-95
2023/01/05 05:09:55;;;;;;;12.25;2.45;;;;;;;;;;6220532;23;20026;-94
2023/01/05 05:12:21;;;;;;;24.25;4.25;;;;;;;;;;6194396;23;20005;-94
2023/01/05 05:14:50;;;;;;;22.10;3.42;;;;;;;;;;6218409;23;20317;-95
2023/01/05 05:17:17;;;;;;;11.43;2.95;;;;;;;;;;6244282;23;20008;-94
2023/01/05 05:19:43;;;;;;;21.13;4.43;;;;;;;;;;6194937;23;20004;-94
2023/01/05 05:22:10;;;;;;;18.98;3.17;;;;;;;;;;6220313;23;20008;-95
2023/01/05 05:24:36;;;;;;;14.25;2.28;;;;;;;;;;6218876;23;20091;-95
2023/01/05 05:27:04;;;;;;;16.88;2.42;;;;;;;;;;6195640;23;20016;-95
2023/01/05 05:29:31;;;;;;;26.13;2.92;;;;;;;;;;6194568;23;20432;-95
2023/01/05 05:31:57;;;;;;;27.90;3.38;;;;;;;;;;6219535;23;20420;-95
2023/01/05 05:34:25;;;;;;;25.77;3.50;;;;;;;;;;6195067;23;20101;-95
2023/01/05 05:36:51;;;;;;;21.77;3.60;;;;;;;;;;6218243;23;20035;-95
2023/01/05 05:39:30;;;;;;;20.88;2.58;;;;;;;;;;6219927;23;20024;-95
2023/01/05 05:41:59;;;;;;;19.42;3.70;;;;;;;;;;6219561;23;20138;-94
2023/01/05 05:44:25;;;;;;;28.88;3.75;;;;;;;;;;6244054;23;20384;-95
2023/01/05 05:46:51;;;;;;;25.98;3.92;;;;;;;;;;6219400;23;20011;-95
2023/01/05 05:49:17;;;;;;;20.15;2.70;;;;;;;;;;6195186;23;20589;-96
2023/01/05 05:51:51;;;;;;;19.92;3.22;;;;;;;;;;6198078;22;20516;-95
2023/01/05 05:54:17;;;;;;;13.95;2.20;;;;;;;;;;6164643;23;20092;-95
2023/01/05 05:56:43;;;;;;;23.67;3.63;;;;;;;;;;6188830;23;20008;-95
2023/01/05 05:59:09;;;;;;;11.90;3.35;;;;;;;;;;6189275;23;20766;-95
2023/01/05 06:01:35;;;;;;;38.45;4.00;;;;;;;;;;6189079;23;20040;-95
2023/01/05 06:04:01;;;;;;;20.40;2.35;;;;;;;;;;6165781;23;20110;-95
2023/01/05 06:06:27;;;;;;;22.83;3.50;;;;;;;;;;6165929;23;20012;-95
2023/01/05 06:08:53;;;;;;;24.42;3.22;;;;;;;;;;6191375;23;20011;-94
2023/01/05 06:11:19;;;;;;;22.52;3.63;;;;;;;;;;6191072;23;20011;-95
2023/01/05 06:13:47;;;;;;;24.05;4.18;;;;;;;;;;6166316;23;20009;-95
2023/01/05 06:16:13;;;;;;;14.65;2.22;;;;;;;;;;6165096;23;20019;-95
2023/01/05 06:18:39;;;;;;;23.92;4.20;;;;;;;;;;6188910;23;20073;-96
2023/01/05 06:21:05;;;;;;;17.40;2.35;;;;;;;;;;6188500;23;20428;-95
2023/01/05 06:23:32;;;;;;;21.88;3.40;;;;;;;;;;6188568;23;20019;-95
2023/01/05 06:26:05;;;;;;;23.42;4.35;;;;;;;;;;6164460;23;20036;-95
2023/01/05 06:28:44;;;;;;;;;;;;;;;;;;;;;
2023/01/05 06:31:10;;;;;;;30.52;3.95;;;;;;;;;;6216181;23;20088;-95
2023/01/05 06:33:36;;;;;;;35.70;4.20;;;;;;;;;;6165491;23;20095;-95
2023/01/05 06:36:05;;;;;;;21.08;3.65;;;;;;;;;;6190206;23;20004;-96
2023/01/05 06:38:39;;;;;;;22.13;4.68;;;;;;;;;;6166283;23;20143;-95
2023/01/05 06:41:05;;;;;;;21.80;3.55;;;;;;;;;;6190469;23;20031;-96
2023/01/05 06:43:31;;;;;;;26.83;3.30;;;;;;;;;;6189182;23;20024;-95
2023/01/05 06:45:57;;;;;;;16.98;3.83;;;;;;;;;;6195859;23;20016;-95
2023/01/05 06:48:24;;;;;;;26.23;3.47;;;;;;;;;;6174528;23;20017;-95
2023/01/05 06:50:52;;;;;;;16.88;4.07;;;;;;;;;;6199118;22;20016;-95
2023/01/05 06:53:18;;;;;;;21.63;3.30;;;;;;;;;;6169835;23;20087;-95
2023/01/05 06:55:45;;;;;;;29.90;3.42;;;;;;;;;;6170373;23;20009;-95
2023/01/05 06:58:18;;;;;;;25.48;3.45;;;;;;;;;;6195287;23;20001;-95
2023/01/05 07:00:55;;;;;;;41.50;4.90;;;;;;;;;;6195742;23;20009;-95
2023/01/05 07:03:23;;;;;;;33.33;4.82;;;;;;;;;;6195803;23;20425;-95
2023/01/05 07:06:18;;;;;;;11.80;2.83;;;;;;;;;;6195747;23;20027;-95
2023/01/05 07:08:50;;;;;;;17.87;2.70;;;;;;;;;;6191221;23;20016;-95
2023/01/05 07:11:16;;;;;;;32.53;4.45;;;;;;;;;;6169457;23;20286;-95
2023/01/05 07:13:53;;;;;;;20.83;3.55;;;;;;;;;;6171072;23;20015;-95
2023/01/05 07:16:19;;;;;;;27.17;2.72;;;;;;;;;;6193204;23;20001;-95
2023/01/05 07:18:45;;;;;;;21.08;3.35;;;;;;;;;;6166993;23;20067;-94
2023/01/05 07:21:11;;;;;;;25.15;3.45;;;;;;;;;;6195158;23;20054;-96
2023/01/05 07:23:37;;;;;;;26.98;3.38;;;;;;;;;;6192771;23;20119;-94
2023/01/05 07:26:07;;;;;;;30.48;4.28;;;;;;;;;;6192238;23;20008;-94
2023/01/05 07:31:29;;;;;;;23.52;3.03;;;;;;;;;;6177245;23;20008;-94
2023/01/05 07:33:55;;;;;;;19.50;4.00;;;;;;;;;;6169449;23;20036;-94
2023/01/05 07:36:28;;;;;;;27.85;3.95;;;;;;;;;;6194397;23;20062;-94
2023/01/05 07:38:54;;;;;;;39.22;4.30;;;;;;;;;;6193493;23;20456;-95
2023/01/05 07:41:20;;;;;;;21.67;3.28;;;;;;;;;;6193818;23;20008;-95
2023/01/05 07:43:49;;;;;;;17.20;2.38;;;;;;;;;;6170181;23;20017;-95
2023/01/05 07:46:22;;;;;;;47.22;5.10;;;;;;;;;;6195179;23;20096;-95
2023/01/05 07:48:48;;;;;;;26.10;3.40;;;;;;;;;;6192000;23;20443;-95
2023/01/05 07:51:23;;;;;;;11.13;2.75;;;;;;;;;;6183651;22;20024;-95
2023/01/05 07:53:49;;;;;;;34.40;4.38;;;;;;;;;;6198358;23;20012;-95
2023/01/05 07:56:15;;;;;;;23.00;2.97;;;;;;;;;;6249403;23;20016;-95
2023/01/05 07:58:45;;;;;;;17.83;3.25;;;;;;;;;;6249070;23;20034;-94
2023/01/05 08:01:12;;;;;;;22.55;3.38;;;;;;;;;;6248398;23;20387;-94
2023/01/05 08:03:38;;;;;;;21.63;2.88;;;;;;;;;;6247949;23;20087;-94
2023/01/05 08:06:45;;;;;;;21.35;3.45;;;;;;;;;;6197820;23;20012;-94
2023/01/05 08:15:11;;;;;;;32.83;4.03;;;;;;;;;;6224697;23;20008;-95
2023/01/05 08:17:39;;;;;;;13.23;2.83;;;;;;;;;;6197915;23;20012;-94
2023/01/05 08:20:06;;;;;;;11.15;2.08;;;;;;;;;;6249051;23;20430;-94
2023/01/05 08:22:35;;;;;;;14.38;2.92;;;;;;;;;;6197347;23;20015;-95
2023/01/05 08:25:04;;;;;;;18.40;2.97;;;;;;;;;;6197684;23;20001;-94
2023/01/05 08:27:30;;;;;;;33.35;4.07;;;;;;;;;;6196186;23;20031;-94
2023/01/05 08:29:56;;;;;;;12.43;1.83;;;;;;;;;;6197624;23;20413;-94
2023/01/05 08:32:27;;;;;;;11.60;2.97;;;;;;;;;;6250652;23;20344;-95
2023/01/05 08:34:55;;;;;;;23.58;2.72;;;;;;;;;;6248567;23;20007;-96
2023/01/05 08:37:21;;;;;;;23.15;3.25;;;;;;;;;;6249083;23;20000;-96
2023/01/05 08:39:47;;;;;;;25.52;3.08;;;;;;;;;;6196858;23;20004;-95
2023/01/05 08:42:13;;;;;;;26.05;3.75;;;;;;;;;;6206427;23;20019;-95
2023/01/05 08:44:47;;;;;;;16.48;2.88;;;;;;;;;;6209227;23;20012;-96
2023/01/05 08:47:18;;;;;;;21.38;4.30;;;;;;;;;;6208834;23;20012;-96
2023/01/05 08:52:27;;;;;;;29.15;3.17;;;;;;;;;;6221035;22;20091;-92
2023/01/05 08:54:53;;;;;;;20.40;4.22;;;;;;;;;;6183917;23;20584;-92
2023/01/05 08:57:19;;;;;;;21.58;2.85;;;;;;;;;;6183460;23;20060;-90
2023/01/05 08:59:45;;;;;;;27.33;3.25;;;;;;;;;;6157507;23;20008;-90
2023/01/05 09:02:11;;;;;;;31.50;3.95;;;;;;;;;;6157867;23;20051;-91
2023/01/05 09:04:37;;;;;;;23.75;3.33;;;;;;;;;;6183093;23;20015;-91
2023/01/05 09:07:04;;;;;;;28.40;4.35;;;;;;;;;;6182587;23;20448;-91
2023/01/05 09:09:30;;;;;;;16.75;3.03;;;;;;;;;;6158505;23;20346;-91
2023/01/05 09:12:22;;;;;;;31.50;3.58;;;;;;;;;;6183716;23;20013;-92
2023/01/05 09:14:48;;;;;;;25.95;4.40;;;;;;;;;;6182442;23;20428;-91
2023/01/05 09:17:16;;;;;;;18.98;3.22;;;;;;;;;;6157677;23;20445;-92
2023/01/05 09:19:45;;;;;;;30.27;4.30;;;;;;;;;;6180766;23;20206;-91
2023/01/05 09:22:14;;;;;;;24.05;5.00;;;;;;;;;;6154779;23;20448;-91
2023/01/05 09:24:40;;;;;;;18.52;3.70;;;;;;;;;;6154074;23;20206;-91
2023/01/05 09:27:09;;;;;;;9.98;2.38;;;;;;;;;;6179267;23;20013;-91
2023/01/05 09:29:35;;;;;;;28.55;3.42;;;;;;;;;;6180244;23;20348;-91
2023/01/05 09:32:01;;;;;;;23.23;3.15;;;;;;;;;;6180076;23;20457;-91
2023/01/05 09:34:27;;;;;;;15.20;2.72;;;;;;;;;;6180519;23;20020;-91
2023/01/05 09:36:53;;;;;;;26.02;3.58;;;;;;;;;;6180210;23;20028;-91
2023/01/05 09:39:19;;;;;;;18.15;2.45;;;;;;;;;;6179457;23;20004;-91
2023/01/05 09:41:48;;;;;;;21.08;3.42;;;;;;;;;;6177950;23;20413;-91
2023/01/05 09:44:29;;;;;;;19.08;4.07;;;;;;;;;;6179396;23;20009;-91
2023/01/05 09:46:56;;;;;;;16.40;2.20;;;;;;;;;;6178763;23;20008;-91
2023/01/05 09:49:24;;;;;;;19.23;2.70;;;;;;;;;;6179004;23;20012;-91
2023/01/05 09:51:53;;;;;;;17.52;2.67;;;;;;;;;;6179000;23;20321;-91
2023/01/05 09:54:24;;;;;;;25.35;2.97;;;;;;;;;;6182373;22;20095;-91
2023/01/05 09:56:50;;;;;;;24.38;2.67;;;;;;;;;;6208976;23;20150;-90
2023/01/05 09:59:20;;;;;;;16.80;2.22;;;;;;;;;;6186016;23;20360;-91
2023/01/05 10:01:47;;;;;;;9.40;2.05;;;;;;;;;;6211263;23;20050;-91
2023/01/05 10:04:24;;;;;;;11.50;1.35;;;;;;;;;;6212171;23;20016;-91
2023/01/05 10:06:52;;;;;;;9.50;2.03;;;;;;;;;;6211748;23;20011;-90
2023/01/05 10:09:20;;;;;;;13.65;2.50;;;;;;;;;;6213898;23;20016;-91
2023/01/05 10:14:39;;;;;;;12.25;3.45;;;;;;;;;;6240429;23;20018;-91
2023/01/05 10:17:31;;;;;;;24.13;2.35;;;;;;;;;;6214123;23;20108;-91
2023/01/05 10:19:57;;;;;;;24.77;2.92;;;;;;;;;;6207805;23;20004;-91
2023/01/05 10:22:41;;;;;;;13.43;1.88;;;;;;;;;;6237925;23;20054;-91
2023/01/05 10:25:07;;;;;;;19.55;2.35;;;;;;;;;;6213110;23;20004;-91
2023/01/05 10:27:40;;;;;;;15.18;2.33;;;;;;;;;;6211284;23;20008;-90
2023/01/05 10:30:24;;;;;;;9.52;1.75;;;;;;;;;;6211990;23;20039;-91
2023/01/05 10:32:56;;;;;;;14.32;2.38;;;;;;;;;;6210473;23;20371;-91
2023/01/05 10:35:41;;;;;;;18.92;2.58;;;;;;;;;;6211884;23;20023;-91
2023/01/05 10:38:19;;;;;;;12.75;2.72;;;;;;;;;;6211506;23;20063;-91
2023/01/05 10:40:45;;;;;;;19.80;2.50;;;;;;;;;;6213089;23;20008;-90
2023/01/05 10:43:11;;;;;;;20.13;5.05;;;;;;;;;;6212980;23;20621;-90
2023/01/05 10:45:37;;;;;;;17.02;1.67;;;;;;;;;;6213072;23;20012;-91
2023/01/05 10:48:10;;;;;;;20.77;2.53;;;;;;;;;;6187526;23;20344;-90
2023/01/05 10:50:37;;;;;;;23.83;2.70;;;;;;;;;;6213363;23;20009;-91
2023/01/05 10:53:24;;;;;;;13.73;2.08;;;;;;;;;;6213028;22;20016;-90
2023/01/05 10:55:56;;;;;;;16.50;3.20;;;;;;;;;;6212995;23;20005;-92
2023/01/05 10:58:39;;;;;;;24.60;3.35;;;;;;;;;;6213079;23;20000;-91
2023/01/05 11:01:25;;;;;;;16.20;2.33;;;;;;;;;;6214491;23;20015;-91
2023/01/05 11:03:55;;;;;;;9.65;2.17;;;;;;;;;;6215822;23;20013;-91
2023/01/05 11:06:29;;;;;;;14.10;2.05;;;;;;;;;;6211848;23;20081;-91
2023/01/05 11:08:55;;;;;;;9.23;2.10;;;;;;;;;;6214848;23;20475;-91
2023/01/05 11:11:25;;;;;;;12.80;1.90;;;;;;;;;;6189290;23;20012;-91
2023/01/05 11:13:56;;;;;;;11.50;2.00;;;;;;;;;;6214611;23;20005;-91
2023/01/05 11:16:25;;;;;;;16.92;2.53;;;;;;;;;;6215147;23;20058;-91
2023/01/05 11:19:12;;;;;;;18.27;2.17;;;;;;;;;;6214432;23;20018;-91
2023/01/05 11:21:41;;;;;;;10.85;2.40;;;;;;;;;;6214167;23;20016;-91
2023/01/05 11:24:25;;;;;;;10.15;1.70;;;;;;;;;;6212462;23;20062;-92
2023/01/05 11:26:54;;;;;;;15.95;2.50;;;;;;;;;;6213673;23;20019;-91
2023/01/05 11:29:20;;;;;;;7.43;1.80;;;;;;;;;;6212711;23;20004;-91
2023/01/05 11:32:01;;;;;;;15.40;2.55;;;;;;;;;;6190041;23;20012;-92
2023/01/05 11:34:30;;;;;;;16.88;2.50;;;;;;;;;;6214437;23;20004;-91
2023/01/05 11:36:58;;;;;;;10.00;1.75;;;;;;;;;;6213646;23;20178;-91
2023/01/05 11:39:41;;;;;;;11.27;2.30;;;;;;;;;;6213974;23;20026;-91
2023/01/05 11:42:09;;;;;;;21.00;2.95;;;;;;;;;;6240296;23;20004;-91
2023/01/05 11:44:41;;;;;;;16.55;2.28;;;;;;;;;;6214279;23;20007;-92
2023/01/05 11:47:08;;;;;;;8.25;1.85;;;;;;;;;;6214184;23;20008;-91
2023/01/05 11:49:35;;;;;;;20.98;2.45;;;;;;;;;;6189637;23;20023;-92
2023/01/05 11:52:01;;;;;;;18.13;3.70;;;;;;;;;;6213692;23;20012;-93
2023/01/05 11:54:35;;;;;;;18.67;3.10;;;;;;;;;;6216659;22;20228;-92
2023/01/05 11:57:18;;;;;;;12.93;2.30;;;;;;;;;;6215897;23;20005;-91
2023/01/05 11:59:45;;;;;;;22.77;3.85;;;;;;;;;;6214645;23;20424;-91
2023/01/05 12:02:11;;;;;;;24.98;2.97;;;;;;;;;;6189871;23;20016;-91
2023/01/05 12:04:41;;;;;;;17.80;3.53;;;;;;;;;;6242241;23;20467;-91
2023/01/05 12:07:07;;;;;;;15.43;3.17;;;;;;;;;;6214237;23;20391;-91
2023/01/05 12:09:43;;;;;;;19.58;3.08;;;;;;;;;;6214606;23;20008;-92
2023/01/05 12:12:21;;;;;;;28.05;3.22;;;;;;;;;;6214672;23;20015;-91
2023/01/05 12:14:47;;;;;;;14.23;2.65;;;;;;;;;;6215022;23;20011;-91
2023/01/05 12:17:15;;;;;;;25.90;3.67;;;;;;;;;;6214491;23;20000;-91
2023/01/05 12:20:13;;;;;;;11.90;3.28;;;;;;;;;;6216238;23;20735;-91
2023/01/05 12:22:44;;;;;;;18.77;2.63;;;;;;;;;;6163274;23;20012;-91
2023/01/05 12:25:24;;;;;;;14.02;2.85;;;;;;;;;;6213056;23;20321;-91
2023/01/05 12:28:00;;;;;;;14.68;2.90;;;;;;;;;;6212273;23;20019;-91
2023/01/05 12:30:32;;;;;;;11.93;2.70;;;;;;;;;;6212144;23;20012;-91
2023/01/05 12:32:58;;;;;;;16.77;3.58;;;;;;;;;;6212735;23;20066;-90
2023/01/05 12:35:30;;;;;;;8.13;1.92;;;;;;;;;;6205419;23;20008;-91
2023/01/05 12:38:07;;;;;;;7.28;3.13;;;;;;;;;;6211714;23;20008;-90
2023/01/05 12:40:35;;;;;;;8.75;2.03;;;;;;;;;;6211600;23;20008;-91
2023/01/05 12:43:05;;;;;;;15.05;2.42;;;;;;;;;;6216861;23;20493;-91
2023/01/05 12:45:59;;;;;;;13.63;2.70;;;;;;;;;;6215656;23;20008;-92
2023/01/05 12:51:31;;;;;;;22.75;2.97;;;;;;;;;;6082733;23;20017;-92
2023/01/05 12:54:19;;;;;;;12.98;2.28;;;;;;;;;;6139286;23;20026;-92
2023/01/05 12:56:58;;;;;;;15.20;1.85;;;;;;;;;;6239276;23;20031;-91
2023/01/05 12:59:33;;;;;;;23.92;3.25;;;;;;;;;;6214347;23;20712;-91
2023/01/05 13:02:19;;;;;;;21.33;2.72;;;;;;;;;;6214140;23;20028;-92
2023/01/05 13:05:25;;;;;;;;;;;;;;;;;;;;;
2023/01/05 13:08:08;;;;;;;16.30;2.72;;;;;;;;;;6239774;22;20063;-90
2023/01/05 13:10:55;;;;;;;16.98;2.60;;;;;;;;;;6239018;23;20440;-91
2023/01/05 13:13:24;;;;;;;11.57;2.80;;;;;;;;;;6213113;23;20560;-91
2023/01/05 13:16:11;;;;;;;12.13;3.22;;;;;;;;;;6213418;23;20008;-90
2023/01/05 13:18:40;;;;;;;21.05;3.17;;;;;;;;;;6214221;23;20066;-91
2023/01/05 13:21:06;;;;;;;24.33;2.97;;;;;;;;;;6212967;23;20744;-90
2023/01/05 13:24:05;;;;;;;32.40;8.40;;;;;;;;;;6188154;23;20008;-90
2023/01/05 13:26:31;;;;;;;10.52;3.05;;;;;;;;;;6179321;23;20008;-90
2023/01/05 13:28:59;;;;;;;18.40;3.00;;;;;;;;;;6188934;23;20055;-90
2023/01/05 13:31:34;;;;;;;20.00;3.78;;;;;;;;;;6210103;23;20004;-90
2023/01/05 13:34:12;;;;;;;15.45;2.65;;;;;;;;;;6212263;23;20069;-90
2023/01/05 13:36:44;;;;;;;21.20;3.25;;;;;;;;;;6213898;23;20656;-89
2023/01/05 13:39:15;;;;;;;12.18;2.55;;;;;;;;;;6213129;23;20053;-91
2023/01/05 13:42:08;;;;;;;15.00;2.75;;;;;;;;;;6213439;23;20063;-90
2023/01/05 13:44:53;;;;;;;16.95;2.97;;;;;;;;;;6211868;23;20060;-90
2023/01/05 13:47:31;;;;;;;18.05;3.42;;;;;;;;;;6211007;23;20418;-90
2023/01/05 13:50:17;;;;;;;17.15;2.95;;;;;;;;;;6211263;23;20008;-90
2023/01/05 13:52:43;;;;;;;;;;;;;;;;;;6209165;23;20093;-90
2023/01/05 13:55:13;;;;;;;18.27;2.97;;;;;;;;;;6212872;22;19919;-90
2023/01/05 13:57:40;;;;;;;13.38;3.17;;;;;;;;;;6209584;23;20008;-90
2023/01/05 14:00:09;;;;;;;15.23;3.03;;;;;;;;;;6211749;23;20011;-91
2023/01/05 14:02:43;;;;;;;25.52;4.00;;;;;;;;;;6210062;23;20004;-91
2023/01/05 14:05:23;;;;;;;21.80;3.50;;;;;;;;;;6212117;23;20015;-92
2023/01/05 14:07:49;;;;;;;27.80;3.90;;;;;;;;;;6211404;23;20081;-91
2023/01/05 14:10:26;;;;;;;24.98;4.43;;;;;;;;;;6187613;23;20496;-91
2023/01/05 14:12:55;;;;;;;26.45;3.72;;;;;;;;;;6210519;23;20425;-91
2023/01/05 14:15:24;;;;;;;33.38;4.55;;;;;;;;;;6211395;23;20073;-91
2023/01/05 14:18:01;;;;;;;28.73;5.10;;;;;;;;;;6211290;23;20011;-91
2023/01/05 14:20:30;;;;;;;32.38;4.57;;;;;;;;;;6213766;23;20039;-93
2023/01/05 14:22:56;;;;;;;33.53;4.80;;;;;;;;;;6212323;23;20004;-91
2023/01/05 14:25:38;;;;;;;31.95;5.65;;;;;;;;;;6214507;23;20090;-91
2023/01/05 14:28:23;;;;;;;18.63;4.50;;;;;;;;;;6212902;23;20032;-91
2023/01/05 14:30:50;;;;;;;21.30;3.42;;;;;;;;;;6212610;23;20016;-91
2023/01/05 14:33:18;;;;;;;26.60;4.65;;;;;;;;;;6214528;23;20317;-91
2023/01/05 14:35:44;;;;;;;32.90;4.20;;;;;;;;;;6214807;23;20011;-91
2023/01/05 14:38:13;;;;;;;19.65;3.85;;;;;;;;;;6213304;23;20000;-91
2023/01/05 14:40:42;;;;;;;22.73;4.30;;;;;;;;;;6213983;23;20012;-91
2023/01/05 14:43:20;;;;;;;13.85;3.22;;;;;;;;;;6214275;23;20011;-91
2023/01/05 14:46:02;;;;;;;25.27;3.60;;;;;;;;;;6214313;23;20012;-91
2023/01/05 14:48:54;;;;;;;19.95;3.78;;;;;;;;;;6214673;23;20018;-91
2023/01/05 14:51:25;;;;;;;23.83;4.75;;;;;;;;;;6180150;23;20103;-91
2023/01/05 14:53:52;;;;;;;21.40;5.50;;;;;;;;;;6219836;22;20019;-91
2023/01/05 14:56:28;;;;;;;37.22;6.40;;;;;;;;;;6245089;22;20015;-91
2023/01/05 14:58:57;;;;;;;21.92;3.70;;;;;;;;;;6245413;22;20015;-91
2023/01/05 15:01:25;;;;;;;20.00;4.07;;;;;;;;;;6244371;22;20085;-91
2023/01/05 15:04:07;;;;;;;23.73;5.28;;;;;;;;;;6244952;22;20034;-91
2023/01/05 15:06:51;;;;;;;37.58;5.82;;;;;;;;;;6244968;22;20012;-90
2023/01/05 15:09:41;;;;;;;26.70;4.28;;;;;;;;;;6244583;22;20084;-90
2023/01/05 15:12:16;;;;;;;21.92;3.90;;;;;;;;;;6243710;22;20099;-91
2023/01/05 15:14:48;;;;;;;30.95;7.65;;;;;;;;;;6244240;22;20456;-90
2023/01/05 15:17:33;;;;;;;30.85;6.40;;;;;;;;;;6244523;22;20428;-91
2023/01/05 15:20:05;;;;;;;25.05;4.88;;;;;;;;;;6244570;22;20008;-91
2023/01/05 15:22:50;;;;;;;30.13;4.90;;;;;;;;;;6239517;22;20530;-91
2023/01/05 15:25:41;;;;;;;28.25;4.57;;;;;;;;;;6241659;22;20018;-91
2023/01/05 15:28:07;;;;;;;19.83;3.80;;;;;;;;;;6241399;22;20495;-92
2023/01/05 15:30:47;;;;;;;22.67;5.10;;;;;;;;;;6242118;22;20010;-90
2023/01/05 15:33:22;;;;;;;16.58;3.58;;;;;;;;;;6242625;22;20007;-90
2023/01/05 15:35:50;;;;;;;17.75;4.10;;;;;;;;;;6243923;22;20066;-91
2023/01/05 15:38:21;;;;;;;18.25;3.67;;;;;;;;;;6243754;22;20654;-91
2023/01/05 15:40:47;;;;;;;28.33;6.85;;;;;;;;;;6242858;22;20039;-91